createdAt,value
2023-04-18T00:01:09.922Z,2.70
2023-04-18T00:03:38.997Z,2.78
2023-04-18T00:06:06.899Z,2.38
2023-04-18T00:08:34.394Z,2.90
2023-04-18T00:11:01.629Z,2.78
2023-04-18T00:13:28.996Z,2.50
2023-04-18T00:15:56.786Z,2.80
2023-04-18T00:18:26.694Z,3.00
2023-04-18T00:20:54.300Z,2.70
2023-04-18T00:23:22.333Z,3.20
2023-04-18T00:25:49.550Z,2.70
2023-04-18T00:28:16.793Z,3.00
2023-04-18T00:30:44.044Z,2.75
2023-04-18T00:33:11.404Z,2.45
2023-04-18T00:35:38.628Z,2.78
2023-04-18T00:38:05.869Z,3.10
2023-04-18T00:40:33.480Z,2.90
2023-04-18T00:43:00.717Z,2.70
2023-04-18T00:45:28.026Z,2.97
2023-04-18T00:47:56.018Z,3.28
2023-04-18T00:50:23.984Z,3.28
2023-04-18T00:52:52.014Z,2.90
2023-04-18T00:55:19.406Z,3.00
2023-04-18T00:57:46.684Z,2.60
2023-04-18T01:00:15.136Z,2.90
2023-04-18T01:02:42.889Z,3.72
2023-04-18T01:05:10.302Z,3.78
2023-04-18T01:07:38.313Z,3.05
2023-04-18T01:10:06.037Z,3.15
2023-04-18T01:12:33.541Z,2.72
2023-04-18T01:15:00.869Z,2.92
2023-04-18T01:17:28.499Z,3.03
2023-04-18T01:19:56.983Z,2.85
2023-04-18T01:22:24.235Z,2.78
2023-04-18T01:24:51.475Z,2.55
2023-04-18T01:27:18.727Z,2.78
2023-04-18T01:29:46.023Z,2.90
2023-04-18T01:32:13.369Z,2.75
2023-04-18T01:34:41.517Z,2.70
2023-04-18T01:37:08.788Z,2.20
2023-04-18T01:39:36.073Z,3.20
2023-04-18T01:42:03.611Z,2.88
2023-04-18T01:44:31.271Z,3.10
2023-04-18T01:46:58.543Z,2.80
2023-04-18T01:49:25.770Z,2.70
2023-04-18T01:51:52.963Z,2.55
2023-04-18T01:54:20.269Z,2.80
2023-04-18T01:56:47.584Z,3.15
2023-04-18T01:59:14.775Z,3.60
2023-04-18T02:01:42.810Z,2.97
2023-04-18T02:04:10.361Z,3.33
2023-04-18T02:06:37.999Z,2.75
2023-04-18T02:09:05.293Z,2.83
2023-04-18T02:11:32.768Z,2.95
2023-04-18T02:14:00.084Z,2.85
2023-04-18T02:16:27.409Z,4.75
2023-04-18T02:18:54.621Z,2.80
2023-04-18T02:21:22.682Z,3.08
2023-04-18T02:23:50.000Z,3.25
2023-04-18T02:26:17.271Z,2.45
2023-04-18T02:28:44.474Z,2.78
2023-04-18T02:31:14.849Z,2.65
2023-04-18T02:33:43.196Z,2.50
2023-04-18T02:36:10.727Z,2.75
2023-04-18T02:38:38.051Z,2.38
2023-04-18T02:41:05.383Z,2.15
2023-04-18T02:43:33.061Z,2.60
2023-04-18T02:46:00.353Z,2.70
2023-04-18T02:48:27.801Z,3.35
2023-04-18T02:51:03.300Z,2.95
2023-04-18T02:53:30.727Z,3.65
2023-04-18T02:55:58.460Z,3.00
2023-04-18T02:58:25.822Z,2.92
2023-04-18T03:00:53.683Z,3.67
2023-04-18T03:03:21.121Z,3.13
2023-04-18T03:05:48.517Z,2.80
2023-04-18T03:08:16.305Z,4.18
2023-04-18T03:10:43.790Z,4.85
2023-04-18T03:13:10.999Z,6.07
2023-04-18T03:15:38.300Z,8.38
2023-04-18T03:18:05.732Z,3.20
2023-04-18T03:20:32.996Z,3.47
2023-04-18T03:23:00.319Z,3.03
2023-04-18T03:25:27.610Z,4.05
2023-04-18T03:27:54.824Z,3.38
2023-04-18T03:30:22.125Z,6.75
2023-04-18T03:32:49.428Z,3.97
2023-04-18T03:35:16.719Z,6.32
2023-04-18T03:37:44.091Z,3.85
2023-04-18T03:40:11.909Z,6.90
2023-04-18T03:42:39.175Z,6.90
2023-04-18T03:45:06.875Z,5.88
2023-04-18T03:47:34.147Z,6.10
2023-04-18T03:50:01.428Z,7.95
2023-04-18T03:52:29.812Z,5.20
2023-04-18T03:54:57.404Z,3.45
2023-04-18T03:57:24.698Z,7.00
2023-04-18T03:59:51.975Z,9.23
2023-04-18T04:02:19.464Z,7.47
2023-04-18T04:04:47.032Z,9.20
2023-04-18T04:07:14.473Z,4.57
2023-04-18T04:09:41.911Z,3.70
2023-04-18T04:12:09.255Z,6.05
2023-04-18T04:14:37.209Z,2.78
2023-04-18T04:17:04.533Z,8.90
2023-04-18T04:19:31.785Z,5.68
2023-04-18T04:21:59.015Z,5.07
2023-04-18T04:24:26.280Z,6.78
2023-04-18T04:26:53.503Z,8.70
2023-04-18T04:29:21.606Z,6.32
2023-04-18T04:31:48.915Z,10.10
2023-04-18T04:34:16.972Z,6.93
2023-04-18T04:36:44.327Z,7.13
2023-04-18T04:39:11.758Z,3.70
2023-04-18T04:41:39.479Z,8.65
2023-04-18T04:44:07.158Z,4.10
2023-04-18T04:46:34.483Z,3.28
2023-04-18T04:49:01.710Z,9.73
2023-04-18T04:51:29.270Z,9.98
2023-04-18T04:53:56.560Z,8.75
2023-04-18T04:56:23.965Z,9.88
2023-04-18T04:58:51.386Z,8.85
2023-04-18T05:01:18.722Z,4.25
2023-04-18T05:03:46.183Z,8.85
2023-04-18T05:06:14.168Z,6.90
2023-04-18T05:08:41.588Z,6.85
2023-04-18T05:11:08.878Z,6.53
2023-04-18T05:13:36.125Z,8.32
2023-04-18T05:16:04.181Z,3.05
2023-04-18T05:18:33.006Z,7.55
2023-04-18T05:21:01.817Z,8.25
2023-04-18T05:23:29.329Z,8.70
2023-04-18T05:25:56.583Z,4.10
2023-04-18T05:28:25.700Z,7.95
2023-04-18T05:30:52.966Z,7.40
2023-04-18T05:33:20.550Z,9.15
2023-04-18T05:35:47.778Z,7.55
2023-04-18T05:38:15.968Z,6.82
2023-04-18T05:40:43.747Z,8.65
2023-04-18T05:43:11.163Z,7.90
2023-04-18T05:45:38.372Z,7.10
2023-04-18T05:48:05.673Z,4.93
2023-04-18T05:50:33.392Z,8.70
2023-04-18T05:53:01.249Z,5.72
2023-04-18T05:55:28.475Z,4.75
2023-04-18T05:57:55.791Z,7.03
2023-04-18T06:00:23.270Z,9.20
2023-04-18T06:02:50.897Z,8.82
2023-04-18T06:05:18.583Z,10.45
2023-04-18T06:07:46.026Z,8.55
2023-04-18T06:10:13.609Z,9.70
2023-04-18T06:12:40.906Z,6.18
2023-04-18T06:15:08.800Z,6.45
2023-04-18T06:17:36.240Z,9.05
2023-04-18T06:20:06.226Z,7.18
2023-04-18T06:22:36.778Z,4.47
2023-04-18T06:25:04.951Z,4.03
2023-04-18T06:27:32.472Z,10.32
2023-04-18T06:29:59.688Z,9.07
2023-04-18T06:32:27.019Z,9.25
2023-04-18T06:34:54.293Z,8.98
2023-04-18T06:37:21.527Z,6.30
2023-04-18T06:39:48.861Z,9.02
2023-04-18T06:42:16.416Z,4.88
2023-04-18T06:44:43.924Z,7.03
2023-04-18T06:47:11.242Z,8.00
2023-04-18T06:49:38.502Z,4.30
2023-04-18T06:52:05.995Z,7.03
2023-04-18T06:54:33.929Z,5.07
2023-04-18T06:57:03.468Z,5.97
2023-04-18T06:59:30.798Z,7.35
2023-04-18T07:01:58.101Z,3.25
2023-04-18T07:04:25.491Z,6.68
2023-04-18T07:06:52.888Z,6.40
2023-04-18T07:09:20.554Z,8.80
2023-04-18T07:11:47.843Z,7.35
2023-04-18T07:14:15.255Z,6.20
2023-04-18T07:16:42.615Z,7.93
2023-04-18T07:19:09.951Z,7.75
2023-04-18T07:21:40.237Z,5.32
2023-04-18T07:24:07.559Z,2.97
2023-04-18T07:26:35.016Z,3.72
2023-04-18T07:29:02.240Z,7.28
2023-04-18T07:31:31.307Z,9.00
2023-04-18T07:33:58.643Z,5.93
2023-04-18T07:36:26.455Z,3.67
2023-04-18T07:38:53.765Z,7.60
2023-04-18T07:41:21.329Z,3.33
2023-04-18T07:43:48.536Z,8.50
2023-04-18T07:46:15.917Z,13.50
2023-04-18T07:48:43.321Z,9.48
2023-04-18T07:51:11.390Z,10.07
2023-04-18T07:53:39.633Z,11.77
2023-04-18T07:56:07.058Z,12.35
2023-04-18T07:58:34.750Z,6.97
2023-04-18T08:01:02.758Z,11.38
2023-04-18T08:03:30.575Z,10.73
2023-04-18T08:05:58.229Z,10.05
2023-04-18T08:08:25.520Z,10.88
2023-04-18T08:10:53.362Z,6.78
2023-04-18T08:13:20.627Z,7.20
2023-04-18T08:15:48.144Z,6.10
2023-04-18T08:18:15.413Z,10.90
2023-04-18T08:20:42.681Z,8.15
2023-04-18T08:23:12.794Z,4.22
2023-04-18T08:25:40.904Z,6.57
2023-04-18T08:28:09.259Z,9.20
2023-04-18T08:30:36.624Z,9.10
2023-04-18T08:33:03.893Z,9.35
2023-04-18T08:35:31.185Z,6.68
2023-04-18T08:37:58.459Z,6.85
2023-04-18T08:40:25.795Z,7.38
2023-04-18T08:42:53.037Z,9.18
2023-04-18T08:45:20.895Z,11.90
2023-04-18T08:47:48.400Z,10.55
2023-04-18T08:50:17.274Z,5.95
2023-04-18T08:52:45.681Z,5.30
2023-04-18T08:55:12.898Z,7.43
2023-04-18T08:57:40.155Z,11.48
2023-04-18T09:00:11.227Z,5.82
2023-04-18T09:02:43.182Z,7.28
2023-04-18T09:05:12.289Z,14.98
2023-04-18T09:07:39.547Z,7.30
2023-04-18T09:10:07.387Z,9.57
2023-04-18T09:12:35.999Z,6.75
2023-04-18T09:15:13.305Z,6.97
2023-04-18T09:17:52.539Z,4.25
2023-04-18T09:20:43.726Z,8.45
2023-04-18T09:23:14.648Z,9.05
2023-04-18T09:25:44.402Z,3.95
2023-04-18T09:28:29.007Z,8.20
2023-04-18T09:30:57.558Z,4.97
2023-04-18T09:33:28.262Z,3.92
2023-04-18T09:35:56.592Z,6.20
2023-04-18T09:38:39.153Z,7.15
2023-04-18T09:41:10.703Z,10.05
2023-04-18T09:43:38.129Z,14.88
2023-04-18T09:46:05.461Z,11.38
2023-04-18T09:48:32.877Z,12.07
2023-04-18T09:51:06.208Z,4.72
2023-04-18T09:53:41.505Z,10.52
2023-04-18T09:56:12.853Z,10.07
2023-04-18T09:58:41.258Z,10.45
2023-04-18T10:01:08.632Z,17.85
2023-04-18T10:03:42.096Z,9.35
2023-04-18T10:06:09.372Z,7.85
2023-04-18T10:08:36.642Z,8.68
2023-04-18T10:11:03.959Z,4.45
2023-04-18T10:13:32.084Z,4.25
2023-04-18T10:15:59.338Z,9.13
2023-04-18T10:18:26.698Z,4.70
2023-04-18T10:21:01.220Z,8.60
2023-04-18T10:23:37.771Z,9.25
2023-04-18T10:26:06.239Z,13.40
2023-04-18T10:28:58.779Z,10.52
2023-04-18T10:31:27.477Z,6.60
2023-04-18T10:34:04.711Z,4.93
2023-04-18T10:37:05.861Z,14.25
2023-04-18T10:39:54.199Z,10.80
2023-04-18T10:42:46.894Z,11.30
2023-04-18T10:45:24.450Z,12.13
2023-04-18T10:47:51.720Z,8.25
2023-04-18T10:50:18.984Z,8.48
2023-04-18T10:52:46.538Z,7.03
2023-04-18T10:55:16.792Z,15.90
2023-04-18T10:57:48.195Z,7.97
2023-04-18T11:02:57.499Z,9.57
2023-04-18T11:05:28.578Z,10.23
2023-04-18T11:07:55.874Z,8.88
2023-04-18T11:10:25.452Z,10.15
2023-04-18T11:12:53.919Z,7.93
2023-04-18T11:15:22.664Z,5.20
2023-04-18T11:18:03.505Z,6.82
2023-04-18T11:20:38.374Z,14.38
2023-04-18T11:23:17.654Z,16.35
2023-04-18T11:25:45.020Z,8.68
2023-04-18T11:28:13.601Z,11.68
2023-04-18T11:30:41.590Z,17.15
2023-04-18T11:33:09.949Z,12.38
2023-04-18T11:35:46.703Z,12.00
2023-04-18T11:38:14.754Z,8.85
2023-04-18T11:40:48.673Z,13.20
2023-04-18T11:43:20.903Z,14.48
2023-04-18T11:45:54.852Z,7.75
2023-04-18T11:48:23.081Z,8.30
2023-04-18T11:50:50.649Z,5.28
2023-04-18T11:53:37.369Z,5.20
2023-04-18T11:56:05.549Z,12.27
2023-04-18T11:58:33.510Z,12.23
2023-04-18T12:01:18.095Z,11.32
2023-04-18T12:04:05.977Z,7.45
2023-04-18T12:06:53.681Z,7.60
2023-04-18T12:09:22.009Z,13.85
2023-04-18T12:12:02.860Z,17.10
2023-04-18T12:14:30.412Z,19.20
2023-04-18T12:16:57.644Z,13.15
2023-04-18T12:19:28.298Z,5.90
2023-04-18T12:22:06.579Z,10.50
2023-04-18T12:24:34.550Z,8.48
2023-04-18T12:27:01.961Z,10.18
2023-04-18T12:29:29.335Z,10.95
2023-04-18T12:31:56.672Z,6.22
2023-04-18T12:34:24.149Z,16.05
2023-04-18T12:36:52.365Z,9.45
2023-04-18T12:39:19.732Z,14.88
2023-04-18T12:41:49.065Z,16.17
2023-04-18T12:44:17.315Z,17.83
2023-04-18T12:46:44.609Z,15.43
2023-04-18T12:49:11.866Z,8.30
2023-04-18T12:51:39.801Z,8.43
2023-04-18T12:54:07.061Z,12.20
2023-04-18T12:56:34.293Z,6.45
2023-04-18T12:59:01.663Z,17.48
2023-04-18T13:01:29.534Z,8.23
2023-04-18T13:04:10.857Z,18.95
2023-04-18T13:06:39.539Z,7.78
2023-04-18T13:09:06.772Z,17.80
2023-04-18T13:11:34.117Z,20.10
2023-04-18T13:14:01.453Z,15.23
2023-04-18T13:16:28.866Z,15.60
2023-04-18T13:18:56.178Z,24.38
2023-04-18T13:21:25.198Z,7.97
2023-04-18T13:23:52.459Z,15.05
2023-04-18T13:26:20.662Z,24.17
2023-04-18T13:28:47.937Z,6.72
2023-04-18T13:31:16.954Z,8.00
2023-04-18T13:33:44.552Z,20.65
2023-04-18T13:36:11.818Z,14.27
2023-04-18T13:38:39.534Z,17.48
2023-04-18T13:41:12.671Z,7.95
2023-04-18T13:43:40.964Z,23.35
2023-04-18T13:46:08.261Z,11.80
2023-04-18T13:48:35.620Z,14.73
2023-04-18T13:51:03.097Z,15.57
2023-04-18T13:53:31.255Z,15.57
2023-04-18T13:55:59.162Z,18.02
2023-04-18T13:58:26.684Z,12.80
2023-04-18T14:00:54.023Z,16.73
2023-04-18T14:03:22.694Z,16.52
2023-04-18T14:05:50.163Z,17.15
2023-04-18T14:08:18.380Z,14.98
2023-04-18T14:10:45.587Z,20.42
2023-04-18T14:13:12.817Z,20.65
2023-04-18T14:15:40.163Z,14.43
2023-04-18T14:18:07.402Z,17.73
2023-04-18T14:20:34.805Z,19.50
2023-04-18T14:23:02.244Z,27.40
2023-04-18T14:25:29.723Z,15.32
2023-04-18T14:28:09.414Z,6.82
2023-04-18T14:30:40.114Z,12.70
2023-04-18T14:33:08.599Z,7.95
2023-04-18T14:35:37.219Z,13.30
2023-04-18T14:38:04.476Z,11.45
2023-04-18T14:40:33.052Z,19.48
2023-04-18T14:43:00.540Z,21.73
2023-04-18T14:45:27.990Z,27.58
2023-04-18T14:47:55.887Z,17.65
2023-04-18T14:50:23.263Z,12.68
2023-04-18T14:52:50.957Z,12.27
2023-04-18T14:55:20.076Z,6.10
2023-04-18T14:57:47.351Z,7.85
2023-04-18T15:00:15.563Z,14.10
2023-04-18T15:02:43.317Z,28.48
2023-04-18T15:05:12.416Z,13.43
2023-04-18T15:07:40.811Z,10.00
2023-04-18T15:10:08.586Z,7.85
2023-04-18T15:12:36.338Z,13.70
2023-04-18T15:15:03.921Z,15.95
2023-04-18T15:17:32.296Z,7.78
2023-04-18T15:19:59.751Z,10.52
2023-04-18T15:22:26.992Z,14.73
2023-04-18T15:24:54.278Z,10.32
2023-04-18T15:27:21.481Z,9.80
2023-04-18T15:29:48.774Z,19.38
2023-04-18T15:32:16.325Z,17.10
2023-04-18T15:34:43.632Z,14.73
2023-04-18T15:37:10.877Z,15.80
2023-04-18T15:39:38.800Z,16.02
2023-04-18T15:42:06.070Z,11.20
2023-04-18T15:44:33.387Z,15.02
2023-04-18T15:47:01.790Z,17.10
2023-04-18T15:49:29.424Z,14.05
2023-04-18T15:51:56.866Z,8.10
2023-04-18T15:54:24.147Z,8.25
2023-04-18T15:56:51.653Z,7.63
2023-04-18T15:59:18.891Z,6.68
2023-04-18T16:01:46.443Z,15.05
2023-04-18T16:04:14.501Z,12.48
2023-04-18T16:06:42.509Z,5.63
2023-04-18T16:09:10.208Z,14.02
2023-04-18T16:11:37.461Z,14.15
2023-04-18T16:14:04.662Z,17.13
2023-04-18T16:16:32.302Z,16.33
2023-04-18T16:18:59.735Z,11.98
2023-04-18T16:21:28.270Z,13.90
2023-04-18T16:23:55.474Z,13.65
2023-04-18T16:26:24.807Z,11.93
2023-04-18T16:28:52.104Z,9.70
2023-04-18T16:31:19.371Z,8.48
2023-04-18T16:33:46.730Z,7.00
2023-04-18T16:36:14.055Z,7.55
2023-04-18T16:38:41.420Z,7.18
2023-04-18T16:41:09.444Z,17.95
2023-04-18T16:43:37.897Z,13.57
2023-04-18T16:46:05.618Z,8.98
2023-04-18T16:48:33.232Z,9.70
2023-04-18T16:51:00.690Z,8.80
2023-04-18T16:53:28.157Z,13.45
2023-04-18T16:55:55.835Z,14.73
2023-04-18T16:58:23.661Z,6.85
2023-04-18T17:00:51.087Z,6.57
2023-04-18T17:03:18.556Z,11.30
2023-04-18T17:05:46.508Z,8.15
2023-04-18T17:08:13.735Z,5.13
2023-04-18T17:10:41.062Z,4.93
2023-04-18T17:13:08.276Z,6.53
2023-04-18T17:15:36.557Z,5.22
2023-04-18T17:18:03.956Z,6.65
2023-04-18T17:20:31.397Z,6.25
2023-04-18T17:22:58.702Z,9.10
2023-04-18T17:25:25.929Z,8.15
2023-04-18T17:27:53.226Z,4.90
2023-04-18T17:30:20.753Z,5.20
2023-04-18T17:32:49.226Z,5.57
2023-04-18T17:35:16.760Z,7.57
2023-04-18T17:37:44.038Z,5.18
2023-04-18T17:40:11.992Z,8.02
2023-04-18T17:42:39.429Z,5.00
2023-04-18T17:45:07.680Z,5.43
2023-04-18T17:47:36.462Z,7.00
2023-04-18T17:50:04.319Z,7.45
2023-04-18T17:52:31.933Z,4.80
2023-04-18T17:54:59.465Z,7.80
2023-04-18T17:57:26.804Z,5.13
2023-04-18T17:59:54.140Z,5.35
2023-04-18T18:02:23.283Z,8.95
2023-04-18T18:04:51.556Z,9.13
2023-04-18T18:07:18.895Z,7.53
2023-04-18T18:09:46.450Z,4.90
2023-04-18T18:12:13.776Z,5.50
2023-04-18T18:14:41.058Z,5.53
2023-04-18T18:17:08.305Z,4.68
2023-04-18T18:19:36.535Z,8.18
2023-04-18T18:22:03.896Z,7.22
2023-04-18T18:24:31.483Z,7.05
2023-04-18T18:26:59.015Z,5.50
2023-04-18T18:29:26.320Z,4.60
2023-04-18T18:31:53.730Z,7.35
2023-04-18T18:34:22.004Z,6.68
2023-04-18T18:36:50.175Z,4.35
2023-04-18T18:39:17.670Z,4.40
2023-04-18T18:41:45.019Z,4.38
2023-04-18T18:44:12.223Z,3.67
2023-04-18T18:46:40.029Z,3.88
2023-04-18T18:49:09.008Z,3.60
2023-04-18T18:51:37.107Z,3.70
2023-04-18T18:54:04.463Z,6.07
2023-04-18T18:56:31.720Z,5.40
2023-04-18T18:58:59.086Z,4.35
2023-04-18T19:01:26.386Z,4.13
2023-04-18T19:03:53.721Z,3.38
2023-04-18T19:06:21.064Z,3.22
2023-04-18T19:08:48.736Z,4.03
2023-04-18T19:11:16.259Z,3.45
2023-04-18T19:13:44.326Z,4.13
2023-04-18T19:16:11.925Z,4.68
2023-04-18T19:18:40.630Z,3.58
2023-04-18T19:21:07.847Z,4.28
2023-04-18T19:23:36.131Z,4.20
2023-04-18T19:26:03.558Z,3.97
2023-04-18T19:28:30.925Z,4.40
2023-04-18T19:30:58.393Z,4.25
2023-04-18T19:33:25.696Z,4.53
2023-04-18T19:35:53.145Z,4.63
2023-04-18T19:38:20.745Z,4.78
2023-04-18T19:40:48.004Z,4.78
2023-04-18T19:43:15.386Z,4.47
2023-04-18T19:45:42.710Z,4.35
2023-04-18T19:48:10.001Z,4.10
2023-04-18T19:50:39.532Z,4.03
2023-04-18T19:53:07.013Z,4.68
2023-04-18T19:55:34.321Z,5.78
2023-04-18T19:58:01.759Z,3.95
2023-04-18T20:00:29.468Z,4.72
2023-04-18T20:02:59.144Z,3.75
2023-04-18T20:05:26.542Z,3.63
2023-04-18T20:07:54.128Z,4.32
2023-04-18T20:10:22.292Z,3.67
2023-04-18T20:12:50.219Z,4.10
2023-04-18T20:15:17.513Z,3.72
2023-04-18T20:17:44.895Z,3.60
2023-04-18T20:20:13.086Z,3.33
2023-04-18T20:22:41.852Z,3.42
2023-04-18T20:25:09.304Z,3.50
2023-04-18T20:27:36.616Z,3.35
2023-04-18T20:30:04.682Z,3.38
2023-04-18T20:32:33.542Z,3.63
2023-04-18T20:35:03.029Z,3.17
2023-04-18T20:37:30.390Z,3.55
2023-04-18T20:39:58.735Z,2.88
2023-04-18T20:42:26.041Z,3.40
2023-04-18T20:44:54.733Z,2.75
2023-04-18T20:47:22.037Z,3.15
2023-04-18T20:49:49.398Z,3.00
2023-04-18T20:52:16.623Z,2.88
2023-04-18T20:54:43.968Z,3.35
2023-04-18T20:57:11.209Z,3.00
2023-04-18T20:59:38.495Z,2.95
2023-04-18T21:02:06.936Z,2.50
2023-04-18T21:04:34.406Z,3.63
2023-04-18T21:07:01.692Z,3.30
2023-04-18T21:09:36.316Z,3.33
2023-04-18T21:12:04.161Z,3.85
2023-04-18T21:14:31.818Z,2.85
2023-04-18T21:16:59.084Z,2.90
2023-04-18T21:19:26.415Z,2.47
2023-04-18T21:21:53.792Z,3.47
2023-04-18T21:24:21.116Z,2.75
2023-04-18T21:26:48.344Z,3.17
2023-04-18T21:29:15.839Z,2.95
2023-04-18T21:31:43.077Z,3.10
2023-04-18T21:34:11.254Z,3.20
2023-04-18T21:36:40.139Z,3.10
2023-04-18T21:39:08.423Z,3.83
2023-04-18T21:41:35.882Z,2.83
2023-04-18T21:44:03.413Z,3.70
2023-04-18T21:46:31.518Z,3.30
2023-04-18T21:48:58.832Z,2.80
2023-04-18T21:51:27.482Z,2.90
2023-04-18T21:53:55.090Z,2.92
2023-04-18T21:56:22.380Z,3.13
2023-04-18T21:58:49.709Z,2.88
2023-04-18T22:01:17.067Z,2.75
2023-04-18T22:03:44.652Z,2.70
2023-04-18T22:06:12.250Z,2.60
2023-04-18T22:08:39.463Z,2.70
2023-04-18T22:11:09.183Z,2.97
2023-04-18T22:13:36.535Z,3.28
2023-04-18T22:16:04.043Z,2.40
2023-04-18T22:18:33.679Z,3.40
2023-04-18T22:21:03.327Z,3.10
2023-04-18T22:23:30.812Z,3.78
2023-04-18T22:25:58.140Z,3.00
2023-04-18T22:28:27.885Z,3.83
2023-04-18T22:30:55.541Z,3.28
2023-04-18T22:33:22.848Z,2.55
2023-04-18T22:35:50.162Z,3.55
2023-04-18T22:38:17.582Z,3.47
2023-04-18T22:40:44.816Z,3.50
2023-04-18T22:43:12.060Z,3.67
2023-04-18T22:45:39.274Z,3.17
2023-04-18T22:48:11.305Z,3.75
2023-04-18T22:50:42.510Z,2.85
2023-04-18T22:53:10.787Z,3.10
2023-04-18T22:55:41.653Z,3.10
2023-04-18T22:58:09.535Z,4.05
2023-04-18T23:00:37.138Z,3.17
2023-04-18T23:03:04.766Z,3.42
2023-04-18T23:05:32.217Z,3.42
2023-04-18T23:08:00.516Z,3.00
2023-04-18T23:10:28.102Z,3.55
2023-04-18T23:12:55.589Z,3.70
2023-04-18T23:15:23.100Z,3.15
2023-04-18T23:17:53.728Z,3.05
2023-04-18T23:20:21.173Z,3.13
2023-04-18T23:22:51.458Z,3.58
2023-04-18T23:25:19.913Z,3.37
2023-04-18T23:27:47.383Z,4.00
2023-04-18T23:30:14.836Z,3.63
2023-04-18T23:32:42.381Z,3.88
2023-04-18T23:35:10.943Z,3.47
2023-04-18T23:37:38.262Z,2.92
2023-04-18T23:40:06.724Z,3.38
2023-04-18T23:42:37.408Z,3.40
2023-04-18T23:45:05.924Z,2.97
2023-04-18T23:47:35.320Z,3.88
2023-04-18T23:50:02.820Z,3.85
2023-04-18T23:52:30.331Z,3.17
2023-04-18T23:55:01.166Z,3.88
2023-04-18T23:57:28.494Z,3.22
2023-04-18T23:59:55.832Z,2.97
